Time;durP1;ratioP1;P1;durP2;ratioP2;P2;SDS_P1;SDS_P2;PMS_P1;PMS_P2;Temp;Humidity;BMP_temperature;BMP_pressure;BME280_temperature;BME280_humidity;BME280_pressure;Samples;Min_cycle;Max_cycle;Signal;HPM_P1;HPM_P2
2021/12/25 00:01:46;;;;;;;2.28;2.17;;;18.10;42.80;;;;;;5015234;28;20265;-66
2021/12/25 00:04:13;;;;;;;2.50;2.20;;;18.10;42.70;;;;;;5015128;28;20569;-67
2021/12/25 00:06:40;;;;;;;2.47;2.30;;;18.10;42.70;;;;;;5014999;28;20216;-67
2021/12/25 00:09:07;;;;;;;2.53;2.20;;;18.10;43.50;;;;;;5016062;28;20565;-68
2021/12/25 00:11:35;;;;;;;2.50;2.30;;;18.00;42.70;;;;;;5035525;28;20278;-68
2021/12/25 00:14:10;;;;;;;2.95;2.20;;;18.00;42.80;;;;;;5020406;28;20226;-67
2021/12/25 00:16:37;;;;;;;3.35;2.40;;;18.00;42.80;;;;;;5033069;28;20723;-67
2021/12/25 00:19:04;;;;;;;2.40;2.20;;;18.00;42.90;;;;;;5035157;28;20196;-68
2021/12/25 00:21:32;;;;;;;2.45;2.25;;;18.00;42.90;;;;;;5018062;28;20192;-70
2021/12/25 00:23:58;;;;;;;2.42;2.30;;;18.00;42.90;;;;;;5018036;28;20580;-69
2021/12/25 00:26:40;;;;;;;2.50;2.30;;;18.00;42.90;;;;;;5016693;28;20285;-68
2021/12/25 00:29:31;;;;;;;2.35;2.05;;;17.90;42.90;;;;;;5033618;28;20211;-66
2021/12/25 00:32:12;;;;;;;2.22;2.10;;;17.90;42.90;;;;;;5015382;28;20196;-67
2021/12/25 00:34:40;;;;;;;1.92;1.83;;;17.90;42.90;;;;;;5015497;28;20204;-70
2021/12/25 00:37:07;;;;;;;2.38;2.17;;;17.90;43.00;;;;;;5016994;28;20216;-70
2021/12/25 00:39:34;;;;;;;2.25;2.15;;;17.90;43.00;;;;;;5024771;28;20668;-68
2021/12/25 00:42:02;;;;;;;2.47;2.28;;;17.90;43.00;;;;;;5021934;28;20231;-68
2021/12/25 00:44:30;;;;;;;2.30;2.20;;;17.90;43.00;;;;;;5019006;28;20207;-69
2021/12/25 00:46:58;;;;;;;2.30;2.10;;;17.90;43.60;;;;;;5017709;28;20723;-67
2021/12/25 00:49:25;;;;;;;2.40;2.20;;;17.80;43.00;;;;;;5020998;28;20199;-67
2021/12/25 00:51:53;;;;;;;2.40;2.20;;;17.80;43.00;;;;;;5018564;28;20208;-68
2021/12/25 00:54:20;;;;;;;2.30;2.20;;;17.80;43.00;;;;;;5035035;28;20287;-68
2021/12/25 00:56:48;;;;;;;2.30;2.20;;;17.80;43.00;;;;;;5018765;28;20246;-68
2021/12/25 00:59:15;;;;;;;2.17;2.08;;;17.80;43.70;;;;;;5035087;28;20287;-68
2021/12/25 01:01:44;;;;;;;2.10;2.00;;;17.80;43.10;;;;;;5018387;28;20283;-67
2021/12/25 01:04:11;;;;;;;2.30;2.10;;;17.80;43.20;;;;;;5018008;28;20546;-69
2021/12/25 01:06:39;;;;;;;2.00;1.90;;;17.80;43.20;;;;;;5018093;28;20215;-68
2021/12/25 01:09:08;;;;;;;2.17;2.08;;;17.70;43.20;;;;;;5018070;28;20231;-70
2021/12/25 01:11:37;;;;;;;2.10;2.00;;;17.70;43.20;;;;;;5018190;28;20637;-68
2021/12/25 01:14:11;;;;;;;2.15;1.90;;;17.70;43.20;;;;;;5017956;28;20224;-68
2021/12/25 01:17:25;;;;;;;2.40;2.20;;;17.70;43.30;;;;;;5017864;28;20297;-70
2021/12/25 01:20:21;;;;;;;2.28;2.17;;;17.70;43.30;;;;;;5018171;28;20672;-68
2021/12/25 01:23:18;;;;;;;2.25;2.05;;;17.70;43.40;;;;;;5018045;28;20292;-69
2021/12/25 01:26:14;;;;;;;2.40;2.30;;;17.60;43.30;;;;;;5018850;28;20591;-68
2021/12/25 01:31:38;;;;;;;2.17;2.08;;;17.60;43.40;;;;;;5003586;28;20622;-68
2021/12/25 01:37:19;;;;;;;2.50;2.30;;;17.50;43.50;;;;;;4973343;28;20253;-68
2021/12/25 01:40:22;;;;;;;2.40;2.20;;;17.50;43.60;;;;;;5036286;28;20209;-68
2021/12/25 01:49:18;;;;;;;2.45;2.25;;;17.50;43.70;;;;;;5020019;28;20188;-70
2021/12/25 01:51:45;;;;;;;2.22;2.13;;;17.50;43.70;;;;;;5018836;28;20192;-67
2021/12/25 01:54:12;;;;;;;2.13;2.03;;;17.50;43.70;;;;;;5018786;28;20572;-70
2021/12/25 01:56:40;;;;;;;3.83;2.10;;;17.50;43.80;;;;;;5018220;28;20220;-70
2021/12/25 01:59:07;;;;;;;2.10;2.00;;;17.40;43.70;;;;;;5019048;28;20224;-68
2021/12/25 02:01:34;;;;;;;2.50;2.30;;;17.40;43.70;;;;;;5018247;28;20283;-68
2021/12/25 02:04:02;;;;;;;2.28;2.10;;;17.40;43.70;;;;;;5034415;28;20204;-68
2021/12/25 02:06:30;;;;;;;2.80;2.60;;;17.40;43.70;;;;;;5017868;28;20212;-67
2021/12/25 02:08:57;;;;;;;2.42;2.28;;;17.40;43.70;;;;;;5017927;28;20575;-69
2021/12/25 02:11:25;;;;;;;2.05;1.95;;;17.40;43.70;;;;;;5033847;28;20244;-67
2021/12/25 02:13:53;;;;;;;2.53;2.33;;;17.40;43.70;;;;;;5017384;28;20204;-69
2021/12/25 02:16:24;;;;;;;2.42;2.22;;;17.40;43.70;;;;;;5017404;28;20345;-67
2021/12/25 02:19:02;;;;;;;2.30;2.10;;;17.40;43.70;;;;;;5017390;28;20218;-69
2021/12/25 02:21:45;;;;;;;2.60;2.40;;;17.40;43.70;;;;;;5017444;28;20339;-68
2021/12/25 02:24:12;;;;;;;2.13;2.03;;;17.30;43.60;;;;;;5017281;28;20694;-68
2021/12/25 02:26:39;;;;;;;2.55;2.35;;;17.40;43.70;;;;;;5035086;28;20216;-66
2021/12/25 02:29:07;;;;;;;2.47;2.28;;;17.30;43.60;;;;;;5033410;28;20283;-70
2021/12/25 02:31:35;;;;;;;2.13;2.03;;;17.30;43.70;;;;;;5017346;28;20230;-69
2021/12/25 02:34:02;;;;;;;2.10;2.00;;;17.30;43.70;;;;;;5017226;28;20204;-67
2021/12/25 02:36:29;;;;;;;2.22;2.10;;;17.30;43.70;;;;;;5017264;28;20632;-67
2021/12/25 02:38:57;;;;;;;2.50;2.30;;;17.30;43.70;;;;;;5016970;28;20681;-67
2021/12/25 02:41:25;;;;;;;2.17;2.05;;;17.30;43.70;;;;;;5017220;28;20222;-68
2021/12/25 02:43:53;;;;;;;2.40;2.20;;;17.30;43.70;;;;;;5017350;28;20558;-67
2021/12/25 02:46:32;;;;;;;2.30;2.10;;;17.30;43.70;;;;;;5033899;28;20212;-67
2021/12/25 02:48:59;;;;;;;2.28;2.17;;;17.30;43.70;;;;;;5034985;28;20278;-70
2021/12/25 02:51:26;;;;;;;2.25;2.10;;;17.30;43.80;;;;;;5016937;28;20196;-68
2021/12/25 02:53:54;;;;;;;2.20;2.00;;;17.30;43.90;;;;;;5033195;28;20262;-70
2021/12/25 02:56:22;;;;;;;2.28;2.08;;;17.20;43.90;;;;;;5017261;28;20727;-68
2021/12/25 02:58:50;;;;;;;2.08;1.98;;;17.20;43.90;;;;;;5016902;28;20244;-68
2021/12/25 03:01:19;;;;;;;2.47;2.10;;;17.20;43.90;;;;;;5016862;28;20243;-68
2021/12/25 03:03:46;;;;;;;2.60;2.40;;;17.20;43.90;;;;;;5016812;28;20206;-67
2021/12/25 03:06:13;;;;;;;2.25;2.15;;;17.20;43.90;;;;;;5016717;28;20310;-70
2021/12/25 03:08:42;;;;;;;2.50;2.30;;;17.20;44.00;;;;;;5016330;28;20206;-70
2021/12/25 03:11:09;;;;;;;2.08;1.98;;;17.20;44.00;;;;;;5017253;28;20204;-68
2021/12/25 03:13:44;;;;;;;2.40;2.20;;;17.20;44.10;;;;;;5016694;28;20196;-68
2021/12/25 03:16:15;;;;;;;2.50;2.30;;;17.10;43.90;;;;;;5033099;28;20598;-70
2021/12/25 03:18:47;;;;;;;2.40;2.28;;;17.10;44.00;;;;;;5016784;28;20215;-68
2021/12/25 03:21:16;;;;;;;2.58;2.17;;;17.10;44.10;;;;;;5016781;28;20208;-68
2021/12/25 03:23:45;;;;;;;2.20;2.00;;;17.10;44.10;;;;;;5017121;28;20219;-68
2021/12/25 03:26:12;;;;;;;2.47;2.28;;;17.10;44.10;;;;;;5017032;28;20224;-68
2021/12/25 03:28:43;;;;;;;2.33;2.13;;;17.10;44.10;;;;;;5033931;28;20656;-68
2021/12/25 03:31:16;;;;;;;2.50;2.30;;;17.10;44.10;;;;;;5036297;28;20172;-70
2021/12/25 03:33:43;;;;;;;2.25;2.05;;;17.10;44.20;;;;;;5046546;28;20261;-68
2021/12/25 03:36:10;;;;;;;2.40;2.30;;;17.00;44.10;;;;;;5020355;28;20242;-68
2021/12/25 03:38:37;;;;;;;2.33;2.20;;;17.10;44.20;;;;;;5018328;28;20249;-68
2021/12/25 03:41:06;;;;;;;2.20;2.10;;;17.10;44.20;;;;;;5035136;28;20188;-68
2021/12/25 03:43:33;;;;;;;2.40;2.20;;;17.10;44.20;;;;;;5035882;28;20196;-68
2021/12/25 03:46:02;;;;;;;2.60;2.40;;;17.10;44.20;;;;;;5017697;28;20220;-68
2021/12/25 03:48:46;;;;;;;2.08;1.98;;;17.00;44.20;;;;;;5035758;28;20192;-68
2021/12/25 03:59:43;;;;;;;2.45;2.30;;;17.00;44.30;;;;;;4957634;29;20202;-68
2021/12/25 04:02:18;;;;;;;2.60;2.33;;;17.00;44.30;;;;;;4985909;28;20196;-68
2021/12/25 04:04:48;;;;;;;2.20;2.00;;;17.00;44.40;;;;;;5034124;28;20647;-69
2021/12/25 04:07:32;;;;;;;2.55;2.35;;;17.00;44.30;;;;;;5017220;28;20306;-66
2021/12/25 04:10:03;;;;;;;2.05;1.95;;;17.00;44.40;;;;;;5016205;28;20196;-67
2021/12/25 04:12:30;;;;;;;3.10;2.15;;;17.00;44.40;;;;;;5033266;28;20196;-67
2021/12/25 04:14:58;;;;;;;2.85;2.30;;;17.00;44.50;;;;;;5015903;28;20205;-68
2021/12/25 04:17:26;;;;;;;2.13;2.03;;;17.00;44.50;;;;;;5015842;28;20633;-68
2021/12/25 04:19:53;;;;;;;2.33;2.20;;;16.90;44.40;;;;;;5016153;28;20203;-70
2021/12/25 04:22:27;;;;;;;2.58;2.38;;;17.00;44.50;;;;;;5019581;28;20204;-68
2021/12/25 04:24:55;;;;;;;2.40;2.20;;;16.90;44.60;;;;;;5019371;28;20203;-67
2021/12/25 04:27:22;;;;;;;2.88;2.58;;;16.90;44.60;;;;;;5019170;28;20240;-66
2021/12/25 04:29:55;;;;;;;2.35;2.15;;;16.90;44.60;;;;;;5019318;28;20234;-69
2021/12/25 04:32:55;;;;;;;2.30;2.13;;;16.90;44.50;;;;;;5035530;28;20250;-70
2021/12/25 05:03:38;;;;;;;2.40;2.20;;;17.20;43.70;;;;;;5036146;28;20211;-69
2021/12/25 05:06:25;;;;;;;2.20;2.00;;;17.20;43.80;;;;;;5021873;28;20316;-70
2021/12/25 05:08:55;;;;;;;2.42;2.10;;;17.20;43.80;;;;;;5017987;28;20244;-66
2021/12/25 05:11:22;;;;;;;2.03;1.92;;;17.20;43.80;;;;;;5034556;28;20192;-68
2021/12/25 05:13:50;;;;;;;2.00;1.90;;;17.20;43.70;;;;;;5017669;28;20734;-68
2021/12/25 05:16:19;;;;;;;2.40;2.20;;;17.20;43.70;;;;;;5033912;28;20219;-69
2021/12/25 05:18:49;;;;;;;1.92;1.70;;;17.20;43.60;;;;;;5017799;28;20699;-68
2021/12/25 05:21:18;;;;;;;1.90;1.80;;;17.30;43.60;;;;;;5017434;28;20274;-68
2021/12/25 05:23:46;;;;;;;2.30;2.03;;;17.30;43.60;;;;;;5033920;28;20196;-68
2021/12/25 05:26:15;;;;;;;2.17;1.98;;;17.30;43.60;;;;;;5033834;28;20654;-68
2021/12/25 05:28:45;;;;;;;2.58;1.90;;;17.30;43.60;;;;;;5017480;28;20216;-68
2021/12/25 05:31:15;;;;;;;1.80;1.70;;;17.30;43.60;;;;;;5017415;28;20285;-67
2021/12/25 05:34:18;;;;;;;1.80;1.70;;;17.30;43.60;;;;;;4954616;29;20198;-68
2021/12/25 05:36:54;;;;;;;1.70;1.60;;;17.40;43.60;;;;;;5005726;28;20224;-68
2021/12/25 05:39:42;;;;;;;2.28;1.98;;;17.40;43.60;;;;;;5035177;28;20350;-69
2021/12/25 05:42:10;;;;;;;1.80;1.70;;;17.40;43.60;;;;;;5017323;28;20192;-69
2021/12/25 05:44:39;;;;;;;1.83;1.70;;;17.40;43.70;;;;;;5017268;28;20199;-68
2021/12/25 05:47:24;;;;;;;2.03;1.70;;;17.40;43.40;;;;;;5035369;28;20692;-68
2021/12/25 05:49:56;;;;;;;1.98;1.80;;;17.50;43.40;;;;;;5017070;28;20200;-69
2021/12/25 05:52:30;;;;;;;1.70;1.60;;;17.50;43.40;;;;;;5017117;28;20283;-69
2021/12/25 05:55:07;;;;;;;2.30;2.13;;;17.50;43.40;;;;;;5035085;28;20242;-69
2021/12/25 05:57:43;;;;;;;2.17;2.05;;;17.50;43.40;;;;;;5017064;28;20235;-68
2021/12/25 06:00:23;;;;;;;1.85;1.75;;;17.50;43.40;;;;;;5017137;28;20204;-67
2021/12/25 06:02:51;;;;;;;2.13;1.85;;;17.60;43.40;;;;;;5017542;28;20203;-69
2021/12/25 06:05:23;;;;;;;1.90;1.80;;;17.60;43.20;;;;;;5019805;28;20204;-68
2021/12/25 06:07:50;;;;;;;2.00;1.90;;;17.70;43.20;;;;;;5019690;28;20295;-67
2021/12/25 06:10:17;;;;;;;1.85;1.75;;;17.70;43.10;;;;;;5019883;28;20346;-68
2021/12/25 06:12:47;;;;;;;2.20;1.83;;;17.70;43.00;;;;;;5019430;28;20258;-66
2021/12/25 06:15:15;;;;;;;1.83;1.73;;;17.70;43.00;;;;;;5035021;28;20204;-70
2021/12/25 06:18:09;;;;;;;2.10;1.90;;;17.70;43.00;;;;;;5029806;28;20251;-68
2021/12/25 06:20:42;;;;;;;1.65;1.55;;;17.80;42.90;;;;;;5018317;28;20206;-67
2021/12/25 06:23:12;;;;;;;2.00;1.90;;;17.80;42.90;;;;;;5035287;28;20562;-68
2021/12/25 06:26:02;;;;;;;1.77;1.67;;;17.80;42.80;;;;;;5023583;28;20274;-68
2021/12/25 06:29:03;;;;;;;1.73;1.63;;;17.80;42.80;;;;;;4990523;28;20204;-68
2021/12/25 06:31:52;;;;;;;1.90;1.80;;;17.80;42.70;;;;;;5034112;28;20172;-70
2021/12/25 06:34:37;;;;;;;1.80;1.70;;;17.80;42.60;;;;;;5034673;28;20183;-68
2021/12/25 06:37:13;;;;;;;1.88;1.77;;;17.80;42.60;;;;;;5016031;28;20223;-70
2021/12/25 06:39:59;;;;;;;2.05;1.95;;;17.90;42.60;;;;;;5034099;28;20211;-68
2021/12/25 06:42:34;;;;;;;2.03;1.90;;;17.90;42.50;;;;;;5016302;28;20565;-69
2021/12/25 06:45:04;;;;;;;1.95;1.80;;;17.90;42.60;;;;;;5015015;28;20235;-67
2021/12/25 06:47:31;;;;;;;1.98;1.83;;;17.90;42.50;;;;;;5016116;28;20212;-68
2021/12/25 06:50:01;;;;;;;2.20;2.00;;;17.90;42.50;;;;;;5015794;28;20192;-67
2021/12/25 06:52:45;;;;;;;2.10;2.00;;;17.90;42.50;;;;;;5033810;28;20179;-68
2021/12/25 06:55:28;;;;;;;2.17;2.00;;;17.90;42.50;;;;;;5015806;28;20196;-68
2021/12/25 06:58:05;;;;;;;2.00;1.90;;;18.00;43.20;;;;;;5016090;28;20200;-68
2021/12/25 07:00:33;;;;;;;2.13;1.92;;;18.00;42.50;;;;;;5032326;28;20196;-70
2021/12/25 07:03:03;;;;;;;2.22;2.03;;;18.00;42.50;;;;;;5015638;28;20200;-70
2021/12/25 07:05:48;;;;;;;2.20;1.92;;;18.00;42.40;;;;;;5033353;28;20293;-68
2021/12/25 07:08:34;;;;;;;2.30;2.10;;;18.00;42.50;;;;;;5033764;28;20710;-69
2021/12/25 07:11:20;;;;;;;2.10;1.95;;;18.00;42.50;;;;;;5015852;28;20200;-68
2021/12/25 07:13:53;;;;;;;1.92;1.83;;;18.00;42.50;;;;;;5034013;28;20246;-69
2021/12/25 07:16:41;;;;;;;2.30;2.20;;;18.00;42.50;;;;;;5033368;28;20234;-68
2021/12/25 07:19:10;;;;;;;2.35;2.15;;;18.00;42.50;;;;;;5033641;28;20553;-68
2021/12/25 07:22:00;;;;;;;2.22;2.13;;;18.00;42.60;;;;;;5033024;28;20274;-68
2021/12/25 07:24:47;;;;;;;2.10;2.00;;;18.00;42.60;;;;;;5022552;28;20254;-68
2021/12/25 07:27:44;;;;;;;2.10;1.95;;;18.00;42.60;;;;;;5015523;28;20219;-68
2021/12/25 07:30:12;;;;;;;2.75;2.55;;;17.90;42.50;;;;;;5015713;28;20261;-68
2021/12/25 07:32:40;;;;;;;2.83;2.63;;;18.00;42.70;;;;;;5015802;28;20576;-68
2021/12/25 07:35:07;;;;;;;2.20;2.10;;;18.00;42.70;;;;;;5033279;28;20188;-68
2021/12/25 07:37:35;;;;;;;2.25;2.00;;;18.00;42.60;;;;;;5015645;28;20233;-68
2021/12/25 07:40:02;;;;;;;2.05;1.95;;;18.00;42.70;;;;;;5015349;28;20219;-68
2021/12/25 07:42:29;;;;;;;2.53;2.22;;;18.00;42.60;;;;;;5015538;28;20254;-68
2021/12/25 07:45:17;;;;;;;2.60;2.40;;;18.00;42.70;;;;;;5019199;28;20601;-68
2021/12/25 07:47:50;;;;;;;2.42;2.30;;;18.00;42.60;;;;;;5015327;28;20226;-67
2021/12/25 07:50:17;;;;;;;2.83;2.30;;;18.00;42.80;;;;;;5031879;28;20261;-66
2021/12/25 07:52:45;;;;;;;3.20;2.30;;;18.00;42.70;;;;;;5015143;28;20238;-68
2021/12/25 07:55:11;;;;;;;2.88;2.65;;;18.00;42.70;;;;;;5016209;28;20196;-68
2021/12/25 07:57:39;;;;;;;3.00;2.70;;;18.00;42.80;;;;;;5036903;28;20214;-68
2021/12/25 08:00:07;;;;;;;2.55;2.30;;;18.00;42.70;;;;;;5037055;28;20691;-67
2021/12/25 08:02:39;;;;;;;2.30;2.20;;;18.10;42.80;;;;;;5037164;28;20188;-67
2021/12/25 08:05:08;;;;;;;4.28;2.67;;;18.00;42.70;;;;;;5019191;28;20299;-69
2021/12/25 08:07:35;;;;;;;2.65;2.45;;;18.10;42.70;;;;;;5019115;28;20826;-68
2021/12/25 08:10:12;;;;;;;2.85;2.65;;;18.10;42.80;;;;;;5019103;28;20253;-68
2021/12/25 08:12:40;;;;;;;2.58;2.42;;;18.10;42.70;;;;;;5019009;28;20597;-68
2021/12/25 08:15:08;;;;;;;3.45;2.83;;;18.10;42.70;;;;;;5036294;28;20192;-69
2021/12/25 08:17:35;;;;;;;2.65;2.45;;;18.20;42.70;;;;;;5018600;28;20219;-68
2021/12/25 08:20:42;;;;;;;2.97;2.78;;;18.20;42.70;;;;;;5036395;28;20245;-67
2021/12/25 08:23:29;;;;;;;2.75;2.53;;;18.20;42.60;;;;;;5036353;28;20310;-67
2021/12/25 08:26:05;;;;;;;2.55;2.42;;;18.20;42.70;;;;;;5036690;28;20310;-70
2021/12/25 08:28:51;;;;;;;2.85;2.65;;;18.20;42.60;;;;;;5036938;28;20191;-68
2021/12/25 08:31:36;;;;;;;3.30;3.00;;;18.20;42.60;;;;;;5036673;28;20301;-66
2021/12/25 08:34:26;;;;;;;2.70;2.50;;;18.20;42.50;;;;;;5036287;28;20202;-70
2021/12/25 08:37:03;;;;;;;2.80;2.60;;;18.30;42.70;;;;;;5018782;28;20262;-68
2021/12/25 08:39:30;;;;;;;2.58;2.42;;;18.30;42.60;;;;;;5018768;28;20218;-68
2021/12/25 08:42:02;;;;;;;2.83;2.63;;;18.30;42.70;;;;;;5019121;28;20287;-69
2021/12/25 08:44:35;;;;;;;3.00;2.72;;;18.30;42.60;;;;;;5019205;28;20291;-69
2021/12/25 08:47:04;;;;;;;3.10;2.60;;;18.30;42.60;;;;;;5033549;28;20235;-69
2021/12/25 08:49:32;;;;;;;3.22;2.70;;;18.30;42.50;;;;;;5026340;28;20291;-68
2021/12/25 08:52:00;;;;;;;3.28;3.00;;;18.30;42.50;;;;;;5018970;28;20227;-69
2021/12/25 08:54:29;;;;;;;3.38;3.08;;;18.30;42.50;;;;;;5018586;28;20200;-70
2021/12/25 08:56:56;;;;;;;4.32;3.75;;;18.40;42.60;;;;;;5018556;28;20212;-68
2021/12/25 08:59:23;;;;;;;6.13;3.30;;;18.30;42.40;;;;;;5018640;28;20319;-68
2021/12/25 09:01:50;;;;;;;3.55;3.25;;;18.40;42.50;;;;;;5018661;28;20200;-69
2021/12/25 09:04:18;;;;;;;4.07;3.67;;;18.40;42.50;;;;;;5037281;28;20656;-68
2021/12/25 09:06:44;;;;;;;3.90;3.60;;;18.40;42.40;;;;;;5018775;28;20227;-66
2021/12/25 09:09:12;;;;;;;2.60;2.40;;;18.50;42.40;;;;;;5018875;28;20188;-70
2021/12/25 09:11:40;;;;;;;2.75;2.55;;;18.50;42.50;;;;;;5037333;28;20184;-68
2021/12/25 09:14:07;;;;;;;2.35;2.22;;;18.50;42.40;;;;;;5029925;28;20192;-70
2021/12/25 09:16:34;;;;;;;2.60;2.40;;;18.50;42.40;;;;;;5021725;28;20238;-68
2021/12/25 09:19:01;;;;;;;2.47;2.28;;;18.50;42.40;;;;;;5036620;28;20212;-70
2021/12/25 09:21:28;;;;;;;2.40;2.30;;;18.50;42.30;;;;;;5018607;28;20652;-69
2021/12/25 09:23:55;;;;;;;2.60;2.40;;;18.50;42.40;;;;;;5035077;28;20210;-67
2021/12/25 09:26:23;;;;;;;2.88;2.40;;;18.60;42.40;;;;;;5036441;28;20719;-68
2021/12/25 09:28:51;;;;;;;2.38;2.20;;;18.60;42.40;;;;;;5019025;28;20202;-67
2021/12/25 09:31:18;;;;;;;2.35;2.22;;;18.60;42.40;;;;;;5018836;28;20694;-68
2021/12/25 09:33:45;;;;;;;2.50;2.30;;;18.60;43.00;;;;;;5018615;28;20741;-68
2021/12/25 09:36:12;;;;;;;2.00;1.90;;;18.60;42.50;;;;;;5018787;28;20231;-68
2021/12/25 09:38:39;;;;;;;2.25;2.10;;;18.60;42.50;;;;;;5035788;28;20659;-68
2021/12/25 09:41:06;;;;;;;3.70;2.13;;;18.60;42.50;;;;;;5038153;28;20279;-67
2021/12/25 09:43:34;;;;;;;2.42;2.22;;;18.60;42.70;;;;;;5019025;28;20219;-70
2021/12/25 09:46:02;;;;;;;2.45;2.25;;;18.60;42.90;;;;;;5036645;28;20695;-69
2021/12/25 09:48:29;;;;;;;2.55;2.35;;;18.60;42.90;;;;;;5019130;28;20208;-68
2021/12/25 09:50:56;;;;;;;3.05;2.50;;;18.60;43.20;;;;;;5034843;28;20189;-69
2021/12/25 09:53:23;;;;;;;2.53;2.33;;;18.60;43.20;;;;;;5018655;28;20200;-69
2021/12/25 09:55:50;;;;;;;2.13;2.03;;;18.60;43.30;;;;;;5018438;28;20216;-68
2021/12/25 09:58:17;;;;;;;3.30;2.50;;;18.60;43.70;;;;;;5018127;28;20231;-66
2021/12/25 10:00:46;;;;;;;3.10;2.45;;;18.60;44.40;;;;;;5017819;28;20319;-69
2021/12/25 10:03:14;;;;;;;4.07;2.97;;;18.60;44.70;;;;;;5018081;28;20680;-68
2021/12/25 10:05:45;;;;;;;2.60;2.40;;;18.60;44.70;;;;;;5018205;28;20206;-69
2021/12/25 10:08:13;;;;;;;2.72;2.53;;;18.60;44.20;;;;;;5018108;28;20319;-69
2021/12/25 10:10:42;;;;;;;2.55;2.35;;;18.60;44.70;;;;;;5034989;28;20199;-67
2021/12/25 10:13:23;;;;;;;2.80;2.17;;;18.70;44.80;;;;;;5035390;28;20195;-66
2021/12/25 10:15:50;;;;;;;2.97;2.60;;;18.70;44.80;;;;;;5033722;28;20770;-68
2021/12/25 10:18:25;;;;;;;2.47;2.28;;;18.70;44.80;;;;;;5016724;28;20196;-67
2021/12/25 10:20:52;;;;;;;2.60;2.40;;;18.70;45.40;;;;;;5016653;28;20570;-67
2021/12/25 10:23:25;;;;;;;2.60;2.40;;;18.70;44.90;;;;;;5016557;28;20192;-67
2021/12/25 10:25:58;;;;;;;2.58;2.10;;;18.80;44.80;;;;;;5032677;28;20220;-67
2021/12/25 10:28:29;;;;;;;4.57;2.58;;;18.80;44.80;;;;;;5016710;28;20632;-66
2021/12/25 10:30:58;;;;;;;3.03;2.40;;;18.80;44.80;;;;;;5016338;28;20192;-66
2021/12/25 10:33:29;;;;;;;2.80;2.10;;;18.90;44.90;;;;;;5034134;28;20682;-66
2021/12/25 10:35:59;;;;;;;3.55;2.30;;;18.90;44.70;;;;;;5034144;28;20632;-65
2021/12/25 10:38:26;;;;;;;3.42;2.20;;;18.90;44.90;;;;;;5016201;28;20196;-66
2021/12/25 10:41:22;;;;;;;2.53;2.10;;;18.90;44.90;;;;;;5015984;28;20216;-69
2021/12/25 10:43:52;;;;;;;2.40;2.20;;;19.00;44.80;;;;;;5019880;28;20200;-67
2021/12/25 10:46:20;;;;;;;3.97;2.90;;;19.00;44.70;;;;;;5016331;28;20239;-66
2021/12/25 10:48:48;;;;;;;4.50;2.85;;;19.00;44.80;;;;;;5016076;28;20672;-67
2021/12/25 10:51:26;;;;;;;3.25;2.95;;;19.10;44.90;;;;;;5016102;28;20211;-68
2021/12/25 10:53:54;;;;;;;3.25;2.90;;;19.10;44.80;;;;;;5033962;28;20188;-66
2021/12/25 10:56:21;;;;;;;5.03;4.40;;;19.10;44.60;;;;;;5016146;28;20220;-68
2021/12/25 10:58:48;;;;;;;4.75;4.35;;;19.10;44.60;;;;;;5015707;28;20196;-65
2021/12/25 11:01:16;;;;;;;5.45;4.95;;;19.20;44.90;;;;;;5015704;28;20287;-66
2021/12/25 11:03:44;;;;;;;4.97;4.47;;;19.20;45.20;;;;;;5016010;28;20638;-66
2021/12/25 11:06:15;;;;;;;4.00;3.60;;;19.20;45.00;;;;;;5015290;28;20227;-69
2021/12/25 11:08:42;;;;;;;3.85;3.50;;;19.20;45.10;;;;;;5015744;28;20223;-67
2021/12/25 11:11:10;;;;;;;5.75;3.65;;;19.30;45.10;;;;;;5016241;28;20567;-68
2021/12/25 11:13:38;;;;;;;4.25;3.85;;;19.30;44.80;;;;;;5031962;28;20223;-67
2021/12/25 11:16:20;;;;;;;4.50;3.47;;;19.40;45.30;;;;;;5015236;28;20220;-66
2021/12/25 11:19:01;;;;;;;4.50;3.30;;;19.40;45.20;;;;;;5015794;28;20195;-66
2021/12/25 11:21:30;;;;;;;5.15;2.78;;;19.40;45.30;;;;;;5031706;28;20204;-65
2021/12/25 11:24:14;;;;;;;5.47;2.70;;;19.50;44.90;;;;;;5015252;28;20207;-66
2021/12/25 11:26:42;;;;;;;59.10;33.17;;;19.50;44.50;;;;;;5015000;28;20227;-65
2021/12/25 11:29:11;;;;;;;55.20;36.97;;;19.50;45.50;;;;;;5030428;28;20441;-66
2021/12/25 11:31:38;;;;;;;49.60;31.30;;;19.60;45.80;;;;;;5032976;28;20188;-68
2021/12/25 11:34:05;;;;;;;43.30;27.65;;;19.60;45.50;;;;;;5015190;28;20291;-66
2021/12/25 11:36:36;;;;;;;48.20;26.70;;;19.60;45.50;;;;;;5015786;28;20212;-66
2021/12/25 11:39:05;;;;;;;46.85;27.23;;;19.70;45.20;;;;;;5015935;28;20607;-66
2021/12/25 11:41:33;;;;;;;42.75;24.25;;;19.70;44.80;;;;;;5015800;28;20592;-66
2021/12/25 11:44:05;;;;;;;25.25;15.90;;;19.70;45.00;;;;;;5016163;28;20419;-66
2021/12/25 11:46:37;;;;;;;21.52;14.32;;;19.70;46.10;;;;;;5015018;28;20701;-66
2021/12/25 11:49:06;;;;;;;23.90;14.15;;;19.60;46.70;;;;;;5031428;28;20188;-69
2021/12/25 11:51:34;;;;;;;22.88;13.70;;;19.70;46.60;;;;;;5015210;28;20278;-71
2021/12/25 11:54:16;;;;;;;22.80;13.13;;;19.60;46.10;;;;;;5015255;28;20203;-69
2021/12/25 11:57:02;;;;;;;18.20;12.13;;;19.60;46.10;;;;;;5014911;28;20757;-68
2021/12/25 11:59:29;;;;;;;18.02;11.18;;;19.60;46.00;;;;;;5015110;28;20195;-72
2021/12/25 12:02:02;;;;;;;20.27;12.80;;;19.60;45.90;;;;;;5031592;28;20222;-72
2021/12/25 12:04:29;;;;;;;15.70;10.35;;;19.60;45.50;;;;;;5015628;28;20195;-71
2021/12/25 12:07:00;;;;;;;19.65;12.35;;;19.60;45.80;;;;;;5015463;28;20228;-70
2021/12/25 12:10:03;;;;;;;18.77;12.13;;;19.60;45.70;;;;;;5032746;28;20275;-68
2021/12/25 12:12:49;;;;;;;19.48;10.85;;;19.60;45.50;;;;;;5033585;28;20274;-67
2021/12/25 12:15:55;;;;;;;18.60;11.70;;;19.60;45.50;;;;;;5032730;28;20235;-68
2021/12/25 12:18:41;;;;;;;14.82;9.80;;;19.60;45.50;;;;;;5033012;28;20329;-72
2021/12/25 12:21:34;;;;;;;14.90;10.38;;;19.60;45.50;;;;;;5015170;28;20216;-71
2021/12/25 12:24:37;;;;;;;16.38;10.57;;;19.60;45.30;;;;;;5031515;28;20247;-72
2021/12/25 12:27:05;;;;;;;17.92;10.65;;;19.60;45.00;;;;;;5015019;28;20215;-74
2021/12/25 12:29:44;;;;;;;16.23;10.52;;;19.60;44.90;;;;;;5014779;28;20207;-70
2021/12/25 12:32:43;;;;;;;15.45;10.07;;;19.60;44.90;;;;;;5014485;28;20665;-73
2021/12/25 12:35:28;;;;;;;14.98;10.15;;;19.60;44.70;;;;;;5014560;28;20195;-73
2021/12/25 12:37:55;;;;;;;17.05;10.25;;;19.60;44.80;;;;;;5014887;28;20198;-71
2021/12/25 12:40:27;;;;;;;14.18;9.80;;;19.60;44.60;;;;;;5030826;28;20212;-72
2021/12/25 12:42:58;;;;;;;14.95;9.52;;;19.60;44.50;;;;;;5035422;28;20188;-72
2021/12/25 12:45:26;;;;;;;14.85;9.50;;;19.60;44.60;;;;;;5017991;28;20192;-73
2021/12/25 12:48:16;;;;;;;13.98;10.30;;;19.60;44.70;;;;;;5017915;28;20313;-70
2021/12/25 12:50:45;;;;;;;14.82;9.40;;;19.60;44.70;;;;;;5036143;28;20177;-70
2021/12/25 12:53:13;;;;;;;14.15;9.23;;;19.60;44.70;;;;;;5035646;28;20669;-68
2021/12/25 12:55:42;;;;;;;15.15;9.30;;;19.60;44.60;;;;;;5017965;28;20821;-73
2021/12/25 12:58:13;;;;;;;13.60;8.68;;;19.60;44.60;;;;;;5017940;28;20545;-70
2021/12/25 13:00:40;;;;;;;14.85;9.30;;;19.60;44.70;;;;;;5017858;28;20222;-72
2021/12/25 13:03:07;;;;;;;11.00;8.55;;;19.60;44.50;;;;;;5017484;28;20671;-72
2021/12/25 13:05:36;;;;;;;13.30;8.40;;;19.60;44.60;;;;;;5035152;28;20195;-70
2021/12/25 13:08:11;;;;;;;13.57;8.43;;;19.60;44.60;;;;;;5017449;28;20207;-72
2021/12/25 13:10:43;;;;;;;13.10;8.15;;;19.60;44.70;;;;;;5017409;28;20763;-71
2021/12/25 13:13:12;;;;;;;14.95;8.63;;;19.60;44.60;;;;;;5017289;28;20617;-69
2021/12/25 13:15:41;;;;;;;16.40;9.57;;;19.60;44.60;;;;;;5034947;28;20277;-73
2021/12/25 13:18:08;;;;;;;15.20;8.82;;;19.60;44.50;;;;;;5017278;28;20244;-70
2021/12/25 13:20:38;;;;;;;12.52;8.57;;;19.60;45.20;;;;;;5017457;28;20216;-69
2021/12/25 13:23:06;;;;;;;13.13;8.35;;;19.60;44.60;;;;;;5016841;28;20210;-70
2021/12/25 13:25:34;;;;;;;13.70;8.88;;;19.50;44.80;;;;;;5016871;28;20231;-69
2021/12/25 13:28:03;;;;;;;12.10;7.78;;;19.60;45.10;;;;;;5034726;28;20196;-70
2021/12/25 13:30:31;;;;;;;14.35;8.52;;;19.50;44.90;;;;;;5016941;28;20717;-68
2021/12/25 13:33:08;;;;;;;11.75;7.95;;;19.50;45.90;;;;;;5016913;28;20227;-70
2021/12/25 13:35:35;;;;;;;13.73;7.78;;;19.60;46.20;;;;;;5016901;28;20305;-70
2021/12/25 13:38:02;;;;;;;12.70;8.73;;;19.50;46.50;;;;;;5016284;28;20449;-71
2021/12/25 13:40:29;;;;;;;14.38;7.47;;;19.60;49.50;;;;;;5016838;28;20212;-69
2021/12/25 13:42:56;;;;;;;20.67;9.25;;;19.60;48.30;;;;;;5033451;28;20660;-69
2021/12/25 13:45:23;;;;;;;10.57;7.82;;;19.60;48.00;;;;;;5016675;28;20295;-69
2021/12/25 13:47:56;;;;;;;12.95;7.53;;;19.60;48.10;;;;;;5017385;28;20199;-69
2021/12/25 13:50:23;;;;;;;11.93;7.22;;;19.70;47.70;;;;;;5033477;28;20184;-69
2021/12/25 13:52:53;;;;;;;10.05;6.22;;;19.60;47.20;;;;;;5016567;28;20292;-68
2021/12/25 13:55:21;;;;;;;11.85;7.30;;;19.60;46.80;;;;;;5016585;28;20560;-68
2021/12/25 13:57:50;;;;;;;15.85;10.05;;;19.70;47.20;;;;;;5016464;28;20196;-69
2021/12/25 14:00:18;;;;;;;125.53;112.03;;;19.60;48.40;;;;;;5033317;28;20230;-68